Mandarin — P3NV9 — position and weather

sailwx.info

Track history (hours):
 
Tides and Currents Weather Stations Pressure Air Temp Water Temp Dewpoint Dewpoint Depression Visibility Wind Speed Wind Dir Waves Ship Positions

Mandarin

Last reported at 2018-May-27 17:29 UTC. Time now 2018-Jun-21 17:49 UTC.
Position N 58°44' E 004°37'.
Warning: this ship's position is 25 days out of date.

Length 186 m; draft 9.1 m.

Type: Cargo ship. MMSI: 210464000.

Date/timePositionNaut miles runAvg speedWind from/ knotsBaromVisibWave heightAir tempDewpointWater temp
2018-May-27 17:29N 58°44' E 004°37'713.0
2018-May-27 16:59N 58°40' E 004°47'613.2
2018-May-27 16:30N 58°35' E 004°56'713.0
2018-May-27 16:00N 58°31' E 005°05'712.6
2018-May-27 15:26N 58°26' E 005°15'512.6
2018-May-27 15:00N 58°23' E 005°23'612.9
2018-May-27 14:30N 58°18' E 005°32'713.2
2018-May-27 14:00N 58°14' E 005°41'713.1
2018-May-27 13:30N 58°09' E 005°50'612.9
2018-May-27 13:00N 58°05' E 005°60'713.1
2018-May-27 12:30N 58°01' E 006°09'713.5
2018-May-27 12:00N 57°56' E 006°18'713.3
2018-May-27 11:30N 57°52' E 006°28'912.8
2018-May-27 10:46N 57°47' E 006°43'313.4
2018-May-27 10:30N 57°47' E 006°50'713.6
2018-May-27 10:00N 57°47' E 007°03'713.4
2018-May-27 09:30N 57°47' E 007°15'713.7
2018-May-27 09:00N 57°47' E 007°28'713.9
2018-May-27 08:30N 57°46' E 007°41'713.9
2018-May-27 08:00N 57°46' E 007°54'713.8
2018-May-27 07:30N 57°47' E 008°07'813.8
2018-May-27 06:53N 57°47' E 008°23'514.0
2018-May-27 06:30N 57°47' E 008°33'713.9
2018-May-27 06:00N 57°48' E 008°46'713.5
2018-May-27 05:31N 57°48' E 008°59'712.9
2018-May-27 05:00N 57°48' E 009°11'712.8
2018-May-27 04:30N 57°48' E 009°23'612.7
2018-May-27 04:00N 57°49' E 009°35'613.1
2018-May-27 03:30N 57°49' E 009°47'612.9
2018-May-27 03:00N 57°49' E 009°59'612.6
2018-May-27 02:30N 57°49' E 010°11'612.4
2018-May-27 02:00N 57°49' E 010°23'612.4
2018-May-27 01:31N 57°49' E 010°34'612.4
2018-May-27 01:00N 57°49' E 010°46'612.8
2018-May-27 00:30N 57°45' E 010°55'713.2
2018-May-27 00:00N 57°40' E 011°04'713.3
2018-May-26 23:31N 57°35' E 011°12'713.1
2018-May-26 23:01N 57°31' E 011°21'612.8
2018-May-26 22:30N 57°25' E 011°27'713.7
2018-May-26 22:00N 57°19' E 011°32'713.7
2018-May-26 21:30N 57°12' E 011°36'713.7
2018-May-26 21:00N 57°06' E 011°40'10311.5
2018-May-26 12:02N 55°25' E 010°59'013.1
2018-May-26 12:00N 55°25' E 010°60'712.5
2018-May-26 11:29N 55°18' E 011°03'612.5
2018-May-26 11:00N 55°13' E 011°06'612.7
2018-May-26 10:30N 55°08' E 010°60'713.5
2018-May-26 10:00N 55°01' E 010°59'713.3
2018-May-26 09:30N 54°56' E 010°52'713.8
2018-May-26 09:00N 54°49' E 010°50'713.2
2018-May-26 08:30N 54°42' E 010°47'612.1
2018-May-26 08:00N 54°38' E 010°54'612.9
2018-May-26 07:30N 54°36' E 011°05'713.2
2018-May-26 07:00N 54°34' E 011°16'713.5
2018-May-26 06:30N 54°32' E 011°26'1312.8
2018-May-26 05:30N 54°26' E 011°46'916.6
2018-May-26 04:59N 54°26' E 012°01'12 9.4
2018-May-26 03:46N 54°34' E 012°15'312.7
2018-May-26 03:30N 54°37' E 012°17'912.8
2018-May-26 02:48N 54°42' E 012°30'412.8
2018-May-26 02:28N 54°45' E 012°36'4112.8
2018-May-25 23:16N 54°60' E 013°43'1212.4
2018-May-25 22:17N 55°04' E 014°03'512.9
2018-May-25 21:51N 55°08' E 014°09'512.8
2018-May-25 21:30N 55°12' E 014°14'613.1
2018-May-25 21:00N 55°17' E 014°21'713.0
2018-May-25 20:29N 55°22' E 014°29'612.9
2018-May-25 20:00N 55°26' E 014°36'612.9
2018-May-25 19:30N 55°30' E 014°46'613.0
2018-May-25 19:00N 55°33' E 014°56'613.0
2018-May-25 18:30N 55°36' E 015°06'612.9
2018-May-25 18:00N 55°39' E 015°16'612.7
2018-May-25 17:30N 55°42' E 015°25'612.9
2018-May-25 17:00N 55°46' E 015°35'713.2
2018-May-25 16:30N 55°49' E 015°46'713.1
2018-May-25 16:00N 55°52' E 015°56'713.2
2018-May-25 15:30N 55°56' E 016°06'613.0
2018-May-25 15:00N 55°59' E 016°16'612.9
2018-May-25 14:30N 56°02' E 016°26'612.8
2018-May-25 14:00N 56°05' E 016°36'612.9
2018-May-25 13:30N 56°09' E 016°45'612.8
2018-May-25 13:00N 56°13' E 016°54'612.8
2018-May-25 12:30N 56°17' E 017°03'612.9
2018-May-25 12:00N 56°21' E 017°12'712.9
2018-May-25 11:30N 56°25' E 017°22'712.9
2018-May-25 10:55N 56°29' E 017°33'613.0
2018-May-25 10:28N 56°33' E 017°41'18013.1
2018-May-24 20:41N 58°53' E 021°14'213.2
2018-May-24 20:30N 58°55' E 021°17'613.0
2018-May-24 20:00N 59°00' E 021°24'713.1
2018-May-24 19:30N 59°06' E 021°32'613.0
2018-May-24 19:00N 59°10' E 021°40'612.9
2018-May-24 18:30N 59°14' E 021°50'713.1
2018-May-24 18:00N 59°18' E 022°00'913.0
2018-May-24 17:20N 59°24' E 022°14'413.0
2018-May-24 17:00N 59°26' E 022°21'612.9
2018-May-24 16:30N 59°30' E 022°31'612.8
2018-May-24 16:00N 59°32' E 022°43'713.0
2018-May-24 15:30N 59°34' E 022°55'613.0
2018-May-24 15:00N 59°36' E 023°08'713.1
2018-May-24 14:29N 59°38' E 023°21'613.2
2018-May-24 14:00N 59°40' E 023°32'713.1
2018-May-24 13:30N 59°42' E 023°45'5913.2
2018-May-24 09:00N 59°54' E 025°40'1814.3
2018-May-24 07:44N 59°59' E 026°15'311.4
2018-May-24 07:29N 59°60' E 026°20'510.0
2018-May-24 07:00N 60°01' E 026°30'612.6
2018-May-24 06:30N 60°01' E 026°42'815.6
2018-May-24 05:58N 59°60' E 026°59'612.6
2018-May-24 05:30N 60°01' E 027°10'5 9.9
2018-May-24 05:00N 60°04' E 027°19'713.0
2018-May-24 04:26N 60°08' E 027°31'613.1
2018-May-24 04:00N 60°11' E 027°41'714.5
2018-May-24 03:30N 60°11' E 027°56'510.6
2018-May-24 02:59N 60°10' E 028°06'712.7
2018-May-24 02:24N 60°07' E 028°20'512.7
2018-May-24 02:00N 60°04' E 028°28'612.5
2018-May-24 01:30N 60°03' E 028°41'712.9
2018-May-24 01:00N 60°02' E 028°54'612.8
2018-May-24 00:30N 60°02' E 029°06'612.7
2018-May-24 00:00N 60°02' E 029°19'610.3
2018-May-23 23:28N 60°02' E 029°30'510.7
2018-May-23 23:01N 59°60' E 029°39'510.5
2018-May-23 22:30N 59°58' E 029°49'510.4
2018-May-23 22:00N 59°56' E 029°58'5 9.2
2018-May-23 21:30N 59°54' E 030°07'3 5.7
2018-May-23 21:00N 59°53' E 030°12'1 1.3
2018-May-23 20:30N 59°54' E 030°13'0 0.0
2018-May-23 19:58N 59°54' E 030°13'0 0.0
2018-May-23 19:25N 59°54' E 030°13'0 0.0
2018-May-23 18:58N 59°54' E 030°13'0 0.0
2018-May-23 18:28N 59°54' E 030°13'0 0.0
2018-May-23 17:55N 59°54' E 030°13'0 0.0
2018-May-23 17:19N 59°54' E 030°13'0 0.0
2018-May-23 16:58N 59°54' E 030°13'0 0.0
2018-May-23 16:25N 59°54' E 030°13'0 0.0
2018-May-23 15:58N 59°54' E 030°13'0 0.0
2018-May-23 15:28N 59°54' E 030°13'0 0.0
2018-May-23 14:55N 59°54' E 030°13'0 0.0
2018-May-23 14:25N 59°54' E 030°13'0 0.0
2018-May-23 13:52N 59°54' E 030°13'0 0.0
2018-May-23 13:28N 59°54' E 030°13'0 0.0
2018-May-23 12:52N 59°54' E 030°13'0 0.0
2018-May-23 12:28N 59°54' E 030°13'0 0.0
2018-May-23 11:58N 59°54' E 030°13'0 0.0
2018-May-23 11:28N 59°54' E 030°13'0 0.0
2018-May-23 10:58N 59°54' E 030°13'0 0.0
2018-May-23 10:28N 59°54' E 030°13'0 0.0
2018-May-23 09:58N 59°54' E 030°13'0 0.0
2018-May-23 09:28N 59°54' E 030°13'0 0.0
2018-May-23 08:57N 59°54' E 030°13'0 0.0
2018-May-23 08:27N 59°54' E 030°13'0 0.0
2018-May-23 07:57N 59°54' E 030°13'0 0.0
2018-May-23 07:27N 59°54' E 030°13'0 0.0
2018-May-23 07:01N 59°54' E 030°13'0 0.0
2018-May-23 06:30N 59°54' E 030°13'0 0.0
2018-May-23 05:57N 59°54' E 030°13'0 0.0
2018-May-23 05:27N 59°54' E 030°13'0 0.0
2018-May-23 05:00N 59°54' E 030°13'0 0.0
2018-May-23 04:30N 59°54' E 030°13'0 0.0
2018-May-23 03:57N 59°54' E 030°13'0 0.0
2018-May-23 03:30N 59°54' E 030°13'0 0.0
2018-May-23 03:00N 59°54' E 030°13'0 0.0
2018-May-23 02:30N 59°54' E 030°13'0 0.0
2018-May-23 02:00N 59°54' E 030°13'0 0.0
2018-May-23 01:30N 59°54' E 030°13'0 0.0
2018-May-23 01:00N 59°54' E 030°13'0 0.0
2018-May-23 00:30N 59°54' E 030°13'0 0.0
2018-May-23 00:00N 59°54' E 030°13'0 0.0
2018-May-22 23:30N 59°54' E 030°13'0 0.0
2018-May-22 22:57N 59°54' E 030°13'0 0.0
2018-May-22 22:30N 59°54' E 030°13'0 0.0
2018-May-22 22:00N 59°54' E 030°13'0 0.0
2018-May-22 21:30N 59°54' E 030°13'0 0.0
2018-May-22 21:00N 59°54' E 030°13'0 0.0
2018-May-22 20:30N 59°54' E 030°13'0 0.0
2018-May-22 20:00N 59°54' E 030°13'0 0.0
2018-May-22 19:30N 59°54' E 030°13'0 0.0
2018-May-22 18:57N 59°54' E 030°13'0 0.0
2018-May-22 18:30N 59°54' E 030°13'0 0.0
2018-May-22 18:00N 59°54' E 030°13'0 0.0
2018-May-22 17:30N 59°54' E 030°13'0 0.0
2018-May-22 16:57N 59°54' E 030°13'0 0.0
2018-May-22 16:30N 59°54' E 030°13'0 0.0
2018-May-22 15:57N 59°54' E 030°13'0 0.0
2018-May-22 15:30N 59°54' E 030°13'0 0.0
2018-May-22 15:00N 59°54' E 030°13'0 0.0
2018-May-22 14:30N 59°54' E 030°13'0 0.0
2018-May-22 14:00N 59°54' E 030°13'0 0.0
2018-May-22 13:30N 59°54' E 030°13'0 0.0
2018-May-22 13:00N 59°54' E 030°13'0 0.0
2018-May-22 12:30N 59°54' E 030°13'0 0.0
2018-May-22 12:00N 59°54' E 030°13'0 0.0
2018-May-22 11:30N 59°54' E 030°13'0 0.0
2018-May-22 10:54N 59°54' E 030°13'0 0.0
2018-May-22 10:30N 59°54' E 030°13'0 0.0
2018-May-22 10:00N 59°54' E 030°13'0 0.0
2018-May-22 09:30N 59°54' E 030°13'0 0.0
2018-May-22 09:00N 59°54' E 030°13'0 0.0
2018-May-22 08:30N 59°54' E 030°13'0 0.0
2018-May-22 08:00N 59°54' E 030°13'0 0.0
2018-May-22 07:30N 59°54' E 030°13'0 0.0
2018-May-22 06:57N 59°54' E 030°13'0 0.0
2018-May-22 06:30N 59°54' E 030°13'0 0.0
2018-May-22 06:00N 59°54' E 030°13'0 0.0
2018-May-22 05:24N 59°54' E 030°13'0 0.0
2018-May-22 05:00N 59°54' E 030°13'0 0.0
2018-May-22 04:27N 59°54' E 030°13'0 0.0
2018-May-22 04:00N 59°54' E 030°13'0 0.0
2018-May-22 03:30N 59°54' E 030°13'0 0.0
2018-May-22 02:57N 59°54' E 030°13'0 0.0
2018-May-22 02:30N 59°54' E 030°13'0 0.0
2018-May-22 01:57N 59°54' E 030°13'0 0.0
2018-May-22 01:26N 59°54' E 030°13'0 0.0
2018-May-22 01:00N 59°54' E 030°13'0 0.0
2018-May-22 00:29N 59°54' E 030°13'0 0.0
2018-May-21 23:59N 59°54' E 030°13'0 0.0
2018-May-21 23:29N 59°54' E 030°13'0 0.0
2018-May-21 23:00N 59°54' E 030°13'0 0.0
2018-May-21 22:24N 59°54' E 030°13'0 0.0
2018-May-21 21:53N 59°54' E 030°13'0 0.0
2018-May-21 21:29N 59°54' E 030°13'0 0.0
2018-May-21 20:59N 59°54' E 030°13'0 0.0
2018-May-21 20:26N 59°54' E 030°13'0 0.0
2018-May-21 19:59N 59°54' E 030°13'0 0.0
2018-May-21 19:26N 59°54' E 030°13'0 0.0
2018-May-21 18:50N 59°54' E 030°13'0 0.0
2018-May-21 18:29N 59°54' E 030°13'0 0.0
2018-May-21 17:59N 59°54' E 030°13'0 0.0
2018-May-21 17:29N 59°54' E 030°13'0 0.0
2018-May-21 16:59N 59°54' E 030°13'0 0.0
2018-May-21 16:29N 59°54' E 030°13'0 0.0
2018-May-21 16:00N 59°54' E 030°13'0 0.0
2018-May-21 15:29N 59°54' E 030°13'0 0.0
2018-May-21 14:59N 59°54' E 030°13'0 0.0
2018-May-21 14:29N 59°54' E 030°13'0 0.0
2018-May-21 13:59N 59°54' E 030°13'0 0.0
2018-May-21 13:26N 59°54' E 030°13'0 0.0
2018-May-21 12:59N 59°54' E 030°13'0 0.0
2018-May-21 12:29N 59°54' E 030°13'0 0.0
2018-May-21 11:56N 59°54' E 030°13'0 0.0
2018-May-21 11:17N 59°54' E 030°13'0 0.0
2018-May-21 10:59N 59°54' E 030°13'0 0.0
2018-May-21 10:29N 59°54' E 030°13'0 0.0
2018-May-21 09:59N 59°54' E 030°13'0 0.0
2018-May-21 09:29N 59°54' E 030°13'0 0.0
2018-May-21 08:59N 59°54' E 030°13'0 0.0
2018-May-21 08:29N 59°54' E 030°13'0 0.0
2018-May-21 07:59N 59°54' E 030°13'0 0.0
2018-May-21 07:26N 59°54' E 030°13'0 0.0
2018-May-21 06:59N 59°54' E 030°13'0 0.0
2018-May-21 06:29N 59°54' E 030°13'0 0.0
2018-May-21 05:56N 59°54' E 030°13'0 0.0
2018-May-21 05:29N 59°54' E 030°13'0 0.0
2018-May-21 04:59N 59°54' E 030°13'0 0.0
2018-May-21 04:29N 59°54' E 030°13'0 0.0
2018-May-21 03:53N 59°54' E 030°13'0 0.0
2018-May-21 03:29N 59°54' E 030°13'0 0.0
2018-May-21 02:59N 59°54' E 030°13'0 0.0
2018-May-21 02:29N 59°54' E 030°13'0 0.0
2018-May-21 01:56N 59°54' E 030°13'0 0.0
2018-May-21 01:29N 59°54' E 030°13'0 0.0
2018-May-21 00:59N 59°54' E 030°13'0 0.0
2018-May-21 00:26N 59°54' E 030°13'0 0.0
2018-May-20 23:59N 59°54' E 030°13'0 0.0
2018-May-20 23:29N 59°54' E 030°13'0 0.0
2018-May-20 22:59N 59°54' E 030°13'0 0.0
2018-May-20 22:29N 59°54' E 030°13'0 0.0
2018-May-20 21:59N 59°54' E 030°13'0 0.0
2018-May-20 21:29N 59°54' E 030°13'0 0.0
2018-May-20 20:56N 59°54' E 030°13'0 0.0
2018-May-20 20:29N 59°54' E 030°13'0 0.0
2018-May-20 19:53N 59°54' E 030°13'0 0.0
2018-May-20 19:29N 59°54' E 030°13'0 0.0
2018-May-20 18:59N 59°54' E 030°13'0 0.0
2018-May-20 18:23N 59°54' E 030°13'0 0.0
2018-May-20 17:56N 59°54' E 030°13'0 0.0
2018-May-20 17:29N 59°54' E 030°13'0 0.0
2018-May-20 16:56N 59°54' E 030°13'0 0.0
2018-May-20 16:29N 59°54' E 030°13'0 0.0
2018-May-20 15:59N 59°54' E 030°13'0 0.0
2018-May-20 15:29N 59°54' E 030°13'0 0.0
2018-May-20 14:58N 59°54' E 030°13'0 0.0
2018-May-20 14:28N 59°54' E 030°13'0 0.0
2018-May-20 13:56N 59°54' E 030°13'0 0.0
2018-May-20 13:26N 59°54' E 030°13'0 0.0
2018-May-20 12:58N 59°54' E 030°13'0 0.0
2018-May-20 12:28N 59°54' E 030°13'0 0.0
2018-May-20 11:58N 59°54' E 030°13'0 0.0
2018-May-20 11:28N 59°54' E 030°13'0 0.0
2018-May-20 10:58N 59°54' E 030°13'0 0.0
2018-May-20 10:29N 59°54' E 030°13'0 0.0
2018-May-20 09:58N 59°54' E 030°13'0 0.0
2018-May-20 09:28N 59°54' E 030°13'0 0.0
2018-May-20 08:58N 59°54' E 030°13'0 0.0
2018-May-20 08:28N 59°54' E 030°13'0 0.0
2018-May-20 07:55N 59°54' E 030°13'0 0.0
2018-May-20 07:28N 59°54' E 030°13'0 0.0
2018-May-20 06:55N 59°54' E 030°13'0 0.0
2018-May-20 06:28N 59°54' E 030°13'0 0.0
2018-May-20 05:55N 59°54' E 030°13'0 0.0
2018-May-20 05:28N 59°54' E 030°13'0 0.0
2018-May-20 04:55N 59°54' E 030°13'0 0.0
2018-May-20 04:28N 59°54' E 030°13'0 0.0
2018-May-20 03:58N 59°54' E 030°13'0 0.0
2018-May-20 03:28N 59°54' E 030°13'0 0.0
2018-May-20 02:58N 59°54' E 030°13'0 0.0
2018-May-20 02:28N 59°54' E 030°13'0 0.0
2018-May-20 01:52N 59°54' E 030°13'0 0.0
2018-May-20 01:28N 59°54' E 030°13'0 0.0
2018-May-20 00:52N 59°54' E 030°13'0 0.0
2018-May-20 00:28N 59°54' E 030°13'0 0.0
2018-May-19 23:58N 59°54' E 030°13'0 0.0
2018-May-19 23:28N 59°54' E 030°13'0 0.0
2018-May-19 22:49N 59°54' E 030°13'0 0.0
2018-May-19 22:28N 59°54' E 030°13'0 0.0
2018-May-19 21:58N 59°54' E 030°13'0 0.0
2018-May-19 21:28N 59°54' E 030°13'0 0.0
2018-May-19 20:58N 59°54' E 030°13'0 0.0
2018-May-19 20:28N 59°54' E 030°13'0 0.0
2018-May-19 19:58N 59°54' E 030°13'0 0.0
2018-May-19 19:28N 59°54' E 030°13'0 0.0
2018-May-19 18:58N 59°54' E 030°13'0 0.0
2018-May-19 18:28N 59°54' E 030°13'0 0.0
2018-May-19 17:58N 59°54' E 030°13'0 0.0
2018-May-19 17:25N 59°54' E 030°13'0 0.0
2018-May-19 16:55N 59°54' E 030°13'0 0.0
2018-May-19 16:28N 59°54' E 030°13'0 0.0
2018-May-19 15:58N 59°54' E 030°13'0 0.0
2018-May-19 15:28N 59°54' E 030°13'0 0.0
2018-May-19 14:58N 59°54' E 030°13'0 0.0
2018-May-19 14:28N 59°54' E 030°13'0 0.0
2018-May-19 13:52N 59°54' E 030°13'0 0.0
2018-May-19 13:28N 59°54' E 030°13'0 0.0
2018-May-19 12:58N 59°54' E 030°13'0 0.0
2018-May-19 12:28N 59°54' E 030°13'0 0.0
2018-May-19 11:58N 59°54' E 030°13'0 0.0
2018-May-19 11:25N 59°54' E 030°13'0 0.0
2018-May-19 10:58N 59°54' E 030°13'0 0.0
2018-May-19 10:25N 59°54' E 030°13'0 0.0
2018-May-19 09:58N 59°54' E 030°13'0 0.0
2018-May-19 09:28N 59°54' E 030°13'0 0.0
2018-May-19 08:58N 59°54' E 030°13'0 0.0
2018-May-19 08:28N 59°54' E 030°13'0 0.0
2018-May-19 07:58N 59°54' E 030°13'0 0.0
2018-May-19 07:31N 59°54' E 030°13'0 0.0
2018-May-19 07:00N 59°54' E 030°13'0 0.0
2018-May-19 06:30N 59°54' E 030°13'0 0.0
2018-May-19 06:00N 59°54' E 030°13'0 0.0
2018-May-19 05:27N 59°54' E 030°13'0 0.0
2018-May-19 05:00N 59°54' E 030°13'0 0.0
2018-May-19 04:27N 59°54' E 030°13'0 0.0
2018-May-19 03:57N 59°54' E 030°13'0 0.0
2018-May-19 03:30N 59°54' E 030°13'0 0.0
2018-May-19 03:00N 59°54' E 030°13'0 0.0
2018-May-19 02:27N 59°54' E 030°13'0 0.0
2018-May-19 02:00N 59°54' E 030°13'0 0.0
2018-May-19 01:30N 59°54' E 030°13'0 0.0
2018-May-19 00:57N 59°54' E 030°13'0 0.0
2018-May-19 00:30N 59°54' E 030°13'0 0.0
2018-May-18 23:57N 59°54' E 030°13'0 0.0
2018-May-18 23:30N 59°54' E 030°13'0 0.0
2018-May-18 22:57N 59°54' E 030°13'0 0.0
2018-May-18 22:30N 59°54' E 030°13'0 0.0
2018-May-18 22:00N 59°54' E 030°13'0 0.0
2018-May-18 21:30N 59°54' E 030°13'0 0.0
2018-May-18 20:57N 59°54' E 030°13'0 0.0
2018-May-18 20:30N 59°54' E 030°13'0 0.0
2018-May-18 19:57N 59°54' E 030°13'0 0.0
2018-May-18 19:30N 59°54' E 030°13'0 0.0
2018-May-18 19:00N 59°54' E 030°13'0 0.0
2018-May-18 18:30N 59°54' E 030°13'0 0.0
2018-May-18 18:00N 59°54' E 030°13'0 0.0
2018-May-18 17:30N 59°54' E 030°13'0 0.0
2018-May-18 17:00N 59°54' E 030°13'0 0.0
2018-May-18 16:30N 59°54' E 030°13'0 0.0
2018-May-18 16:00N 59°54' E 030°13'0 0.0
2018-May-18 15:30N 59°54' E 030°13'0 0.0
2018-May-18 15:00N 59°54' E 030°13'0 0.0
2018-May-18 14:30N 59°54' E 030°13'0 0.0
2018-May-18 13:39N 59°54' E 030°13'0 0.0
2018-May-18 13:30N 59°54' E 030°13'0 0.0
2018-May-18 13:00N 59°54' E 030°13'0 0.0
2018-May-18 12:30N 59°54' E 030°13'0 0.0
2018-May-18 12:00N 59°54' E 030°13'0 0.0
2018-May-18 11:30N 59°54' E 030°13'0 0.0
2018-May-18 11:00N 59°54' E 030°13'0 0.0
2018-May-18 10:30N 59°54' E 030°13'0 0.0
2018-May-18 10:00N 59°54' E 030°13'0 0.0
2018-May-18 09:30N 59°54' E 030°13'0 0.0
2018-May-18 09:00N 59°54' E 030°13'0 0.0
2018-May-18 08:30N 59°54' E 030°13'0 0.0
2018-May-18 08:00N 59°54' E 030°13'0 0.0
2018-May-18 07:27N 59°54' E 030°13'0 0.0
2018-May-18 07:00N 59°54' E 030°13'0 0.0
2018-May-18 06:30N 59°54' E 030°13'0 0.0
2018-May-18 05:57N 59°54' E 030°13'0 0.0
2018-May-18 05:30N 59°54' E 030°13'0 0.0
2018-May-18 04:57N 59°54' E 030°13'0 0.0
2018-May-18 04:30N 59°54' E 030°13'0 0.0
2018-May-18 03:57N 59°54' E 030°13'0 0.0
2018-May-18 03:30N 59°54' E 030°13'0 0.0
2018-May-18 03:00N 59°54' E 030°13'0 0.0
2018-May-18 02:29N 59°54' E 030°13'0 0.0
2018-May-18 01:59N 59°54' E 030°13'0 0.0
2018-May-18 01:30N 59°54' E 030°13'0 0.0
2018-May-18 01:00N 59°54' E 030°13'0 0.0
2018-May-18 00:30N 59°54' E 030°13'0 0.0
2018-May-18 00:00N 59°54' E 030°13'0 0.0
2018-May-17 23:29N 59°54' E 030°13'0 0.0
2018-May-17 22:59N 59°54' E 030°13'0 0.0
2018-May-17 22:29N 59°54' E 030°13'0 0.0
2018-May-17 21:59N 59°54' E 030°13'0 0.0
2018-May-17 21:29N 59°54' E 030°13'0 0.0
2018-May-17 20:59N 59°54' E 030°13'0 0.0
2018-May-17 20:29N 59°54' E 030°13'0 0.0
2018-May-17 19:59N 59°54' E 030°13'0 0.0
2018-May-17 19:29N 59°54' E 030°13'0 0.0
2018-May-17 18:59N 59°54' E 030°13'0 0.0
2018-May-17 18:29N 59°54' E 030°13'0 0.0
2018-May-17 17:59N 59°54' E 030°13'  
Track history (hours):
 
Tides and Currents Weather Stations Pressure Air Temp Water Temp Dewpoint Dewpoint Depression Visibility Wind Speed Wind Dir Waves Ship Positions

Mandarin

Last reported at 2018-May-27 17:29 UTC. Time now 2018-Jun-21 17:49 UTC.
Position N 58°44' E 004°37'.
Warning: this ship's position is 25 days out of date.

Length 186 m; draft 9.1 m.

Type: Cargo ship. MMSI: 210464000.

Date/timePositionNaut miles runAvg speedWind from/ knotsBaromVisibWave heightAir tempDewpointWater temp
2018-May-27 17:29N 58°44' E 004°37'713.0
2018-May-27 16:59N 58°40' E 004°47'613.2
2018-May-27 16:30N 58°35' E 004°56'713.0
2018-May-27 16:00N 58°31' E 005°05'712.6
2018-May-27 15:26N 58°26' E 005°15'512.6
2018-May-27 15:00N 58°23' E 005°23'612.9
2018-May-27 14:30N 58°18' E 005°32'713.2
2018-May-27 14:00N 58°14' E 005°41'713.1
2018-May-27 13:30N 58°09' E 005°50'612.9
2018-May-27 13:00N 58°05' E 005°60'713.1
2018-May-27 12:30N 58°01' E 006°09'713.5
2018-May-27 12:00N 57°56' E 006°18'713.3
2018-May-27 11:30N 57°52' E 006°28'912.8
2018-May-27 10:46N 57°47' E 006°43'313.4
2018-May-27 10:30N 57°47' E 006°50'713.6
2018-May-27 10:00N 57°47' E 007°03'713.4
2018-May-27 09:30N 57°47' E 007°15'713.7
2018-May-27 09:00N 57°47' E 007°28'713.9
2018-May-27 08:30N 57°46' E 007°41'713.9
2018-May-27 08:00N 57°46' E 007°54'713.8
2018-May-27 07:30N 57°47' E 008°07'813.8
2018-May-27 06:53N 57°47' E 008°23'514.0
2018-May-27 06:30N 57°47' E 008°33'713.9
2018-May-27 06:00N 57°48' E 008°46'713.5
2018-May-27 05:31N 57°48' E 008°59'712.9
2018-May-27 05:00N 57°48' E 009°11'712.8
2018-May-27 04:30N 57°48' E 009°23'612.7
2018-May-27 04:00N 57°49' E 009°35'613.1
2018-May-27 03:30N 57°49' E 009°47'612.9
2018-May-27 03:00N 57°49' E 009°59'612.6
2018-May-27 02:30N 57°49' E 010°11'612.4
2018-May-27 02:00N 57°49' E 010°23'612.4
2018-May-27 01:31N 57°49' E 010°34'612.4
2018-May-27 01:00N 57°49' E 010°46'612.8
2018-May-27 00:30N 57°45' E 010°55'713.2
2018-May-27 00:00N 57°40' E 011°04'713.3
2018-May-26 23:31N 57°35' E 011°12'713.1
2018-May-26 23:01N 57°31' E 011°21'612.8
2018-May-26 22:30N 57°25' E 011°27'713.7
2018-May-26 22:00N 57°19' E 011°32'713.7
2018-May-26 21:30N 57°12' E 011°36'713.7
2018-May-26 21:00N 57°06' E 011°40'10311.5
2018-May-26 12:02N 55°25' E 010°59'013.1
2018-May-26 12:00N 55°25' E 010°60'712.5
2018-May-26 11:29N 55°18' E 011°03'612.5
2018-May-26 11:00N 55°13' E 011°06'612.7
2018-May-26 10:30N 55°08' E 010°60'713.5
2018-May-26 10:00N 55°01' E 010°59'713.3
2018-May-26 09:30N 54°56' E 010°52'713.8
2018-May-26 09:00N 54°49' E 010°50'713.2
2018-May-26 08:30N 54°42' E 010°47'612.1
2018-May-26 08:00N 54°38' E 010°54'612.9
2018-May-26 07:30N 54°36' E 011°05'713.2
2018-May-26 07:00N 54°34' E 011°16'713.5
2018-May-26 06:30N 54°32' E 011°26'1312.8
2018-May-26 05:30N 54°26' E 011°46'916.6
2018-May-26 04:59N 54°26' E 012°01'12 9.4
2018-May-26 03:46N 54°34' E 012°15'312.7
2018-May-26 03:30N 54°37' E 012°17'912.8
2018-May-26 02:48N 54°42' E 012°30'412.8
2018-May-26 02:28N 54°45' E 012°36'4112.8
2018-May-25 23:16N 54°60' E 013°43'1212.4
2018-May-25 22:17N 55°04' E 014°03'512.9
2018-May-25 21:51N 55°08' E 014°09'512.8
2018-May-25 21:30N 55°12' E 014°14'613.1
2018-May-25 21:00N 55°17' E 014°21'713.0
2018-May-25 20:29N 55°22' E 014°29'612.9
2018-May-25 20:00N 55°26' E 014°36'612.9
2018-May-25 19:30N 55°30' E 014°46'613.0
2018-May-25 19:00N 55°33' E 014°56'613.0
2018-May-25 18:30N 55°36' E 015°06'612.9
2018-May-25 18:00N 55°39' E 015°16'612.7
2018-May-25 17:30N 55°42' E 015°25'612.9
2018-May-25 17:00N 55°46' E 015°35'713.2
2018-May-25 16:30N 55°49' E 015°46'713.1
2018-May-25 16:00N 55°52' E 015°56'713.2
2018-May-25 15:30N 55°56' E 016°06'613.0
2018-May-25 15:00N 55°59' E 016°16'612.9
2018-May-25 14:30N 56°02' E 016°26'612.8
2018-May-25 14:00N 56°05' E 016°36'612.9
2018-May-25 13:30N 56°09' E 016°45'612.8
2018-May-25 13:00N 56°13' E 016°54'612.8
2018-May-25 12:30N 56°17' E 017°03'612.9
2018-May-25 12:00N 56°21' E 017°12'712.9
2018-May-25 11:30N 56°25' E 017°22'712.9
2018-May-25 10:55N 56°29' E 017°33'613.0
2018-May-25 10:28N 56°33' E 017°41'18013.1
2018-May-24 20:41N 58°53' E 021°14'213.2
2018-May-24 20:30N 58°55' E 021°17'613.0
2018-May-24 20:00N 59°00' E 021°24'713.1
2018-May-24 19:30N 59°06' E 021°32'613.0
2018-May-24 19:00N 59°10' E 021°40'612.9
2018-May-24 18:30N 59°14' E 021°50'713.1
2018-May-24 18:00N 59°18' E 022°00'913.0
2018-May-24 17:20N 59°24' E 022°14'413.0
2018-May-24 17:00N 59°26' E 022°21'612.9
2018-May-24 16:30N 59°30' E 022°31'612.8
2018-May-24 16:00N 59°32' E 022°43'713.0
2018-May-24 15:30N 59°34' E 022°55'613.0
2018-May-24 15:00N 59°36' E 023°08'713.1
2018-May-24 14:29N 59°38' E 023°21'613.2
2018-May-24 14:00N 59°40' E 023°32'713.1
2018-May-24 13:30N 59°42' E 023°45'5913.2
2018-May-24 09:00N 59°54' E 025°40'1814.3
2018-May-24 07:44N 59°59' E 026°15'311.4
2018-May-24 07:29N 59°60' E 026°20'510.0
2018-May-24 07:00N 60°01' E 026°30'612.6
2018-May-24 06:30N 60°01' E 026°42'815.6
2018-May-24 05:58N 59°60' E 026°59'612.6
2018-May-24 05:30N 60°01' E 027°10'5 9.9
2018-May-24 05:00N 60°04' E 027°19'713.0
2018-May-24 04:26N 60°08' E 027°31'613.1
2018-May-24 04:00N 60°11' E 027°41'714.5
2018-May-24 03:30N 60°11' E 027°56'510.6
2018-May-24 02:59N 60°10' E 028°06'712.7
2018-May-24 02:24N 60°07' E 028°20'512.7
2018-May-24 02:00N 60°04' E 028°28'612.5
2018-May-24 01:30N 60°03' E 028°41'712.9
2018-May-24 01:00N 60°02' E 028°54'612.8
2018-May-24 00:30N 60°02' E 029°06'612.7
2018-May-24 00:00N 60°02' E 029°19'610.3
2018-May-23 23:28N 60°02' E 029°30'510.7
2018-May-23 23:01N 59°60' E 029°39'510.5
2018-May-23 22:30N 59°58' E 029°49'510.4
2018-May-23 22:00N 59°56' E 029°58'5 9.2
2018-May-23 21:30N 59°54' E 030°07'3 5.7
2018-May-23 21:00N 59°53' E 030°12'1 1.3
2018-May-23 20:30N 59°54' E 030°13'0 0.0
2018-May-23 19:58N 59°54' E 030°13'0 0.0
2018-May-23 19:25N 59°54' E 030°13'0 0.0
2018-May-23 18:58N 59°54' E 030°13'0 0.0
2018-May-23 18:28N 59°54' E 030°13'0 0.0
2018-May-23 17:55N 59°54' E 030°13'0 0.0
2018-May-23 17:19N 59°54' E 030°13'0 0.0
2018-May-23 16:58N 59°54' E 030°13'0 0.0
2018-May-23 16:25N 59°54' E 030°13'0 0.0
2018-May-23 15:58N 59°54' E 030°13'0 0.0
2018-May-23 15:28N 59°54' E 030°13'0 0.0
2018-May-23 14:55N 59°54' E 030°13'0 0.0
2018-May-23 14:25N 59°54' E 030°13'0 0.0
2018-May-23 13:52N 59°54' E 030°13'0 0.0
2018-May-23 13:28N 59°54' E 030°13'0 0.0
2018-May-23 12:52N 59°54' E 030°13'0 0.0
2018-May-23 12:28N 59°54' E 030°13'0 0.0
2018-May-23 11:58N 59°54' E 030°13'0 0.0
2018-May-23 11:28N 59°54' E 030°13'0 0.0
2018-May-23 10:58N 59°54' E 030°13'0 0.0
2018-May-23 10:28N 59°54' E 030°13'0 0.0
2018-May-23 09:58N 59°54' E 030°13'0 0.0
2018-May-23 09:28N 59°54' E 030°13'0 0.0
2018-May-23 08:57N 59°54' E 030°13'0 0.0
2018-May-23 08:27N 59°54' E 030°13'0 0.0
2018-May-23 07:57N 59°54' E 030°13'0 0.0
2018-May-23 07:27N 59°54' E 030°13'0 0.0
2018-May-23 07:01N 59°54' E 030°13'0 0.0
2018-May-23 06:30N 59°54' E 030°13'0 0.0
2018-May-23 05:57N 59°54' E 030°13'0 0.0
2018-May-23 05:27N 59°54' E 030°13'0 0.0
2018-May-23 05:00N 59°54' E 030°13'0 0.0
2018-May-23 04:30N 59°54' E 030°13'0 0.0
2018-May-23 03:57N 59°54' E 030°13'0 0.0
2018-May-23 03:30N 59°54' E 030°13'0 0.0
2018-May-23 03:00N 59°54' E 030°13'0 0.0
2018-May-23 02:30N 59°54' E 030°13'0 0.0
2018-May-23 02:00N 59°54' E 030°13'0 0.0
2018-May-23 01:30N 59°54' E 030°13'0 0.0
2018-May-23 01:00N 59°54' E 030°13'0 0.0
2018-May-23 00:30N 59°54' E 030°13'0 0.0
2018-May-23 00:00N 59°54' E 030°13'0 0.0
2018-May-22 23:30N 59°54' E 030°13'0 0.0
2018-May-22 22:57N 59°54' E 030°13'0 0.0
2018-May-22 22:30N 59°54' E 030°13'0 0.0
2018-May-22 22:00N 59°54' E 030°13'0 0.0
2018-May-22 21:30N 59°54' E 030°13'0 0.0
2018-May-22 21:00N 59°54' E 030°13'0 0.0
2018-May-22 20:30N 59°54' E 030°13'0 0.0
2018-May-22 20:00N 59°54' E 030°13'0 0.0
2018-May-22 19:30N 59°54' E 030°13'0 0.0
2018-May-22 18:57N 59°54' E 030°13'0 0.0
2018-May-22 18:30N 59°54' E 030°13'0 0.0
2018-May-22 18:00N 59°54' E 030°13'0 0.0
2018-May-22 17:30N 59°54' E 030°13'0 0.0
2018-May-22 16:57N 59°54' E 030°13'0 0.0
2018-May-22 16:30N 59°54' E 030°13'0 0.0
2018-May-22 15:57N 59°54' E 030°13'0 0.0
2018-May-22 15:30N 59°54' E 030°13'0 0.0
2018-May-22 15:00N 59°54' E 030°13'0 0.0
2018-May-22 14:30N 59°54' E 030°13'0 0.0
2018-May-22 14:00N 59°54' E 030°13'0 0.0
2018-May-22 13:30N 59°54' E 030°13'0 0.0
2018-May-22 13:00N 59°54' E 030°13'0 0.0
2018-May-22 12:30N 59°54' E 030°13'0 0.0
2018-May-22 12:00N 59°54' E 030°13'0 0.0
2018-May-22 11:30N 59°54' E 030°13'0 0.0
2018-May-22 10:54N 59°54' E 030°13'0 0.0
2018-May-22 10:30N 59°54' E 030°13'0 0.0
2018-May-22 10:00N 59°54' E 030°13'0 0.0
2018-May-22 09:30N 59°54' E 030°13'0 0.0
2018-May-22 09:00N 59°54' E 030°13'0 0.0
2018-May-22 08:30N 59°54' E 030°13'0 0.0
2018-May-22 08:00N 59°54' E 030°13'0 0.0
2018-May-22 07:30N 59°54' E 030°13'0 0.0
2018-May-22 06:57N 59°54' E 030°13'0 0.0
2018-May-22 06:30N 59°54' E 030°13'0 0.0
2018-May-22 06:00N 59°54' E 030°13'0 0.0
2018-May-22 05:24N 59°54' E 030°13'0 0.0
2018-May-22 05:00N 59°54' E 030°13'0 0.0
2018-May-22 04:27N 59°54' E 030°13'0 0.0
2018-May-22 04:00N 59°54' E 030°13'0 0.0
2018-May-22 03:30N 59°54' E 030°13'0 0.0
2018-May-22 02:57N 59°54' E 030°13'0 0.0
2018-May-22 02:30N 59°54' E 030°13'0 0.0
2018-May-22 01:57N 59°54' E 030°13'0 0.0
2018-May-22 01:26N 59°54' E 030°13'0 0.0
2018-May-22 01:00N 59°54' E 030°13'0 0.0
2018-May-22 00:29N 59°54' E 030°13'0 0.0
2018-May-21 23:59N 59°54' E 030°13'0 0.0
2018-May-21 23:29N 59°54' E 030°13'0 0.0
2018-May-21 23:00N 59°54' E 030°13'0 0.0
2018-May-21 22:24N 59°54' E 030°13'0 0.0
2018-May-21 21:53N 59°54' E 030°13'0 0.0
2018-May-21 21:29N 59°54' E 030°13'0 0.0
2018-May-21 20:59N 59°54' E 030°13'0 0.0
2018-May-21 20:26N 59°54' E 030°13'0 0.0
2018-May-21 19:59N 59°54' E 030°13'0 0.0
2018-May-21 19:26N 59°54' E 030°13'0 0.0
2018-May-21 18:50N 59°54' E 030°13'0 0.0
2018-May-21 18:29N 59°54' E 030°13'0 0.0
2018-May-21 17:59N 59°54' E 030°13'0 0.0
2018-May-21 17:29N 59°54' E 030°13'0 0.0
2018-May-21 16:59N 59°54' E 030°13'0 0.0
2018-May-21 16:29N 59°54' E 030°13'0 0.0
2018-May-21 16:00N 59°54' E 030°13'0 0.0
2018-May-21 15:29N 59°54' E 030°13'0 0.0
2018-May-21 14:59N 59°54' E 030°13'0 0.0
2018-May-21 14:29N 59°54' E 030°13'0 0.0
2018-May-21 13:59N 59°54' E 030°13'0 0.0
2018-May-21 13:26N 59°54' E 030°13'0 0.0
2018-May-21 12:59N 59°54' E 030°13'0 0.0
2018-May-21 12:29N 59°54' E 030°13'0 0.0
2018-May-21 11:56N 59°54' E 030°13'0 0.0
2018-May-21 11:17N 59°54' E 030°13'0 0.0
2018-May-21 10:59N 59°54' E 030°13'0 0.0
2018-May-21 10:29N 59°54' E 030°13'0 0.0
2018-May-21 09:59N 59°54' E 030°13'0 0.0
2018-May-21 09:29N 59°54' E 030°13'0 0.0
2018-May-21 08:59N 59°54' E 030°13'0 0.0
2018-May-21 08:29N 59°54' E 030°13'0 0.0
2018-May-21 07:59N 59°54' E 030°13'0 0.0
2018-May-21 07:26N 59°54' E 030°13'0 0.0
2018-May-21 06:59N 59°54' E 030°13'0 0.0
2018-May-21 06:29N 59°54' E 030°13'0 0.0
2018-May-21 05:56N 59°54' E 030°13'0 0.0
2018-May-21 05:29N 59°54' E 030°13'0 0.0
2018-May-21 04:59N 59°54' E 030°13'0 0.0
2018-May-21 04:29N 59°54' E 030°13'0 0.0
2018-May-21 03:53N 59°54' E 030°13'0 0.0
2018-May-21 03:29N 59°54' E 030°13'0 0.0
2018-May-21 02:59N 59°54' E 030°13'0 0.0
2018-May-21 02:29N 59°54' E 030°13'0 0.0
2018-May-21 01:56N 59°54' E 030°13'0 0.0
2018-May-21 01:29N 59°54' E 030°13'0 0.0
2018-May-21 00:59N 59°54' E 030°13'0 0.0
2018-May-21 00:26N 59°54' E 030°13'0 0.0
2018-May-20 23:59N 59°54' E 030°13'0 0.0
2018-May-20 23:29N 59°54' E 030°13'0 0.0
2018-May-20 22:59N 59°54' E 030°13'0 0.0
2018-May-20 22:29N 59°54' E 030°13'0 0.0
2018-May-20 21:59N 59°54' E 030°13'0 0.0
2018-May-20 21:29N 59°54' E 030°13'0 0.0
2018-May-20 20:56N 59°54' E 030°13'0 0.0
2018-May-20 20:29N 59°54' E 030°13'0 0.0
2018-May-20 19:53N 59°54' E 030°13'0 0.0
2018-May-20 19:29N 59°54' E 030°13'0 0.0
2018-May-20 18:59N 59°54' E 030°13'0 0.0
2018-May-20 18:23N 59°54' E 030°13'0 0.0
2018-May-20 17:56N 59°54' E 030°13'0 0.0
2018-May-20 17:29N 59°54' E 030°13'0 0.0
2018-May-20 16:56N 59°54' E 030°13'0 0.0
2018-May-20 16:29N 59°54' E 030°13'0 0.0
2018-May-20 15:59N 59°54' E 030°13'0 0.0
2018-May-20 15:29N 59°54' E 030°13'0 0.0
2018-May-20 14:58N 59°54' E 030°13'0 0.0
2018-May-20 14:28N 59°54' E 030°13'0 0.0
2018-May-20 13:56N 59°54' E 030°13'0 0.0
2018-May-20 13:26N 59°54' E 030°13'0 0.0
2018-May-20 12:58N 59°54' E 030°13'0 0.0
2018-May-20 12:28N 59°54' E 030°13'0 0.0
2018-May-20 11:58N 59°54' E 030°13'0 0.0
2018-May-20 11:28N 59°54' E 030°13'0 0.0
2018-May-20 10:58N 59°54' E 030°13'0 0.0
2018-May-20 10:29N 59°54' E 030°13'0 0.0
2018-May-20 09:58N 59°54' E 030°13'0 0.0
2018-May-20 09:28N 59°54' E 030°13'0 0.0
2018-May-20 08:58N 59°54' E 030°13'0 0.0
2018-May-20 08:28N 59°54' E 030°13'0 0.0
2018-May-20 07:55N 59°54' E 030°13'0 0.0
2018-May-20 07:28N 59°54' E 030°13'0 0.0
2018-May-20 06:55N 59°54' E 030°13'0 0.0
2018-May-20 06:28N 59°54' E 030°13'0 0.0
2018-May-20 05:55N 59°54' E 030°13'0 0.0
2018-May-20 05:28N 59°54' E 030°13'0 0.0
2018-May-20 04:55N 59°54' E 030°13'0 0.0
2018-May-20 04:28N 59°54' E 030°13'0 0.0
2018-May-20 03:58N 59°54' E 030°13'0 0.0
2018-May-20 03:28N 59°54' E 030°13'0 0.0
2018-May-20 02:58N 59°54' E 030°13'0 0.0
2018-May-20 02:28N 59°54' E 030°13'0 0.0
2018-May-20 01:52N 59°54' E 030°13'0 0.0
2018-May-20 01:28N 59°54' E 030°13'0 0.0
2018-May-20 00:52N 59°54' E 030°13'0 0.0
2018-May-20 00:28N 59°54' E 030°13'0 0.0
2018-May-19 23:58N 59°54' E 030°13'0 0.0
2018-May-19 23:28N 59°54' E 030°13'0 0.0
2018-May-19 22:49N 59°54' E 030°13'0 0.0
2018-May-19 22:28N 59°54' E 030°13'0 0.0
2018-May-19 21:58N 59°54' E 030°13'0 0.0
2018-May-19 21:28N 59°54' E 030°13'0 0.0
2018-May-19 20:58N 59°54' E 030°13'0 0.0
2018-May-19 20:28N 59°54' E 030°13'0 0.0
2018-May-19 19:58N 59°54' E 030°13'0 0.0
2018-May-19 19:28N 59°54' E 030°13'0 0.0
2018-May-19 18:58N 59°54' E 030°13'0 0.0
2018-May-19 18:28N 59°54' E 030°13'0 0.0
2018-May-19 17:58N 59°54' E 030°13'0 0.0
2018-May-19 17:25N 59°54' E 030°13'0 0.0
2018-May-19 16:55N 59°54' E 030°13'0 0.0
2018-May-19 16:28N 59°54' E 030°13'0 0.0
2018-May-19 15:58N 59°54' E 030°13'0 0.0
2018-May-19 15:28N 59°54' E 030°13'0 0.0
2018-May-19 14:58N 59°54' E 030°13'0 0.0
2018-May-19 14:28N 59°54' E 030°13'0 0.0
2018-May-19 13:52N 59°54' E 030°13'0 0.0
2018-May-19 13:28N 59°54' E 030°13'0 0.0
2018-May-19 12:58N 59°54' E 030°13'0 0.0
2018-May-19 12:28N 59°54' E 030°13'0 0.0
2018-May-19 11:58N 59°54' E 030°13'0 0.0
2018-May-19 11:25N 59°54' E 030°13'0 0.0
2018-May-19 10:58N 59°54' E 030°13'0 0.0
2018-May-19 10:25N 59°54' E 030°13'0 0.0
2018-May-19 09:58N 59°54' E 030°13'0 0.0
2018-May-19 09:28N 59°54' E 030°13'0 0.0
2018-May-19 08:58N 59°54' E 030°13'0 0.0
2018-May-19 08:28N 59°54' E 030°13'0 0.0
2018-May-19 07:58N 59°54' E 030°13'0 0.0
2018-May-19 07:31N 59°54' E 030°13'0 0.0
2018-May-19 07:00N 59°54' E 030°13'0 0.0
2018-May-19 06:30N 59°54' E 030°13'0 0.0
2018-May-19 06:00N 59°54' E 030°13'0 0.0
2018-May-19 05:27N 59°54' E 030°13'0 0.0
2018-May-19 05:00N 59°54' E 030°13'0 0.0
2018-May-19 04:27N 59°54' E 030°13'0 0.0
2018-May-19 03:57N 59°54' E 030°13'0 0.0
2018-May-19 03:30N 59°54' E 030°13'0 0.0
2018-May-19 03:00N 59°54' E 030°13'0 0.0
2018-May-19 02:27N 59°54' E 030°13'0 0.0
2018-May-19 02:00N 59°54' E 030°13'0 0.0
2018-May-19 01:30N 59°54' E 030°13'0 0.0
2018-May-19 00:57N 59°54' E 030°13'0 0.0
2018-May-19 00:30N 59°54' E 030°13'0 0.0
2018-May-18 23:57N 59°54' E 030°13'0 0.0
2018-May-18 23:30N 59°54' E 030°13'0 0.0
2018-May-18 22:57N 59°54' E 030°13'0 0.0
2018-May-18 22:30N 59°54' E 030°13'0 0.0
2018-May-18 22:00N 59°54' E 030°13'0 0.0
2018-May-18 21:30N 59°54' E 030°13'0 0.0
2018-May-18 20:57N 59°54' E 030°13'0 0.0
2018-May-18 20:30N 59°54' E 030°13'0 0.0
2018-May-18 19:57N 59°54' E 030°13'0 0.0
2018-May-18 19:30N 59°54' E 030°13'0 0.0
2018-May-18 19:00N 59°54' E 030°13'0 0.0
2018-May-18 18:30N 59°54' E 030°13'0 0.0
2018-May-18 18:00N 59°54' E 030°13'0 0.0
2018-May-18 17:30N 59°54' E 030°13'0 0.0
2018-May-18 17:00N 59°54' E 030°13'0 0.0
2018-May-18 16:30N 59°54' E 030°13'0 0.0
2018-May-18 16:00N 59°54' E 030°13'0 0.0
2018-May-18 15:30N 59°54' E 030°13'0 0.0
2018-May-18 15:00N 59°54' E 030°13'0 0.0
2018-May-18 14:30N 59°54' E 030°13'0 0.0
2018-May-18 13:39N 59°54' E 030°13'0 0.0
2018-May-18 13:30N 59°54' E 030°13'0 0.0
2018-May-18 13:00N 59°54' E 030°13'0 0.0
2018-May-18 12:30N 59°54' E 030°13'0 0.0
2018-May-18 12:00N 59°54' E 030°13'0 0.0
2018-May-18 11:30N 59°54' E 030°13'0 0.0
2018-May-18 11:00N 59°54' E 030°13'0 0.0
2018-May-18 10:30N 59°54' E 030°13'0 0.0
2018-May-18 10:00N 59°54' E 030°13'0 0.0
2018-May-18 09:30N 59°54' E 030°13'0 0.0
2018-May-18 09:00N 59°54' E 030°13'0 0.0
2018-May-18 08:30N 59°54' E 030°13'0 0.0
2018-May-18 08:00N 59°54' E 030°13'0 0.0
2018-May-18 07:27N 59°54' E 030°13'0 0.0
2018-May-18 07:00N 59°54' E 030°13'0 0.0
2018-May-18 06:30N 59°54' E 030°13'0 0.0
2018-May-18 05:57N 59°54' E 030°13'0 0.0
2018-May-18 05:30N 59°54' E 030°13'0 0.0
2018-May-18 04:57N 59°54' E 030°13'0 0.0
2018-May-18 04:30N 59°54' E 030°13'0 0.0
2018-May-18 03:57N 59°54' E 030°13'0 0.0
2018-May-18 03:30N 59°54' E 030°13'0 0.0
2018-May-18 03:00N 59°54' E 030°13'0 0.0
2018-May-18 02:29N 59°54' E 030°13'0 0.0
2018-May-18 01:59N 59°54' E 030°13'0 0.0
2018-May-18 01:30N 59°54' E 030°13'0 0.0
2018-May-18 01:00N 59°54' E 030°13'0 0.0
2018-May-18 00:30N 59°54' E 030°13'0 0.0
2018-May-18 00:00N 59°54' E 030°13'0 0.0
2018-May-17 23:29N 59°54' E 030°13'0 0.0
2018-May-17 22:59N 59°54' E 030°13'0 0.0
2018-May-17 22:29N 59°54' E 030°13'0 0.0
2018-May-17 21:59N 59°54' E 030°13'0 0.0
2018-May-17 21:29N 59°54' E 030°13'0 0.0
2018-May-17 20:59N 59°54' E 030°13'0 0.0
2018-May-17 20:29N 59°54' E 030°13'0 0.0
2018-May-17 19:59N 59°54' E 030°13'0 0.0
2018-May-17 19:29N 59°54' E 030°13'0 0.0
2018-May-17 18:59N 59°54' E 030°13'0 0.0
2018-May-17 18:29N 59°54' E 030°13'0 0.0
2018-May-17 17:59N 59°54' E 030°13'  

Dump ship's entire track history